createdAt,value
2023-05-10T00:00:27.073Z,92496.44
2023-05-10T00:02:53.835Z,92492.47
2023-05-10T00:05:20.373Z,92489.47
2023-05-10T00:07:46.856Z,92493.97
2023-05-10T00:10:13.471Z,92490.78
2023-05-10T00:12:40.096Z,92481.91
2023-05-10T00:15:07.246Z,92484.88
2023-05-10T00:17:33.782Z,92472.28
2023-05-10T00:20:00.421Z,92476.97
2023-05-10T00:22:26.942Z,92487.31
2023-05-10T00:24:53.411Z,92487.53
2023-05-10T00:27:19.887Z,92492.41
2023-05-10T00:29:46.352Z,92488.88
2023-05-10T00:32:14.851Z,92488.78
2023-05-10T00:34:41.692Z,92485.28
2023-05-10T00:37:08.294Z,92494.53
2023-05-10T00:39:34.805Z,92478.31
2023-05-10T00:42:01.271Z,92478.03
2023-05-10T00:44:28.403Z,92475.59
2023-05-10T00:46:54.909Z,92472.41
2023-05-10T00:49:21.547Z,92483.25
2023-05-10T00:51:48.106Z,92482.72
2023-05-10T00:54:15.252Z,92498.00
2023-05-10T00:56:41.857Z,92497.53
2023-05-10T00:59:09.414Z,92501.91
2023-05-10T01:01:36.921Z,92501.91
2023-05-10T01:04:04.097Z,92499.91
2023-05-10T01:06:30.605Z,92506.78
2023-05-10T01:08:57.162Z,92498.94
2023-05-10T01:11:23.849Z,92493.63
2023-05-10T01:13:55.036Z,92484.06
2023-05-10T01:16:21.645Z,92487.31
2023-05-10T01:18:48.148Z,92490.00
2023-05-10T01:21:25.019Z,92492.25
2023-05-10T01:24:47.016Z,92493.75
2023-05-10T01:27:31.805Z,92493.81
2023-05-10T01:30:17.001Z,92493.59
2023-05-10T01:33:01.653Z,92500.31
2023-05-10T01:36:14.987Z,92495.19
2023-05-10T01:38:52.747Z,92497.88
2023-05-10T01:41:26.738Z,92497.34
2023-05-10T01:44:05.095Z,92502.19
2023-05-10T01:46:37.669Z,92502.41
2023-05-10T01:49:08.798Z,92498.41
2023-05-10T01:51:47.248Z,92499.91
2023-05-10T01:54:14.305Z,92509.50
2023-05-10T01:56:41.529Z,92495.97
2023-05-10T01:59:12.470Z,92494.19
2023-05-10T02:01:39.742Z,92506.06
2023-05-10T02:04:07.253Z,92501.94
2023-05-10T02:06:33.785Z,92499.81
2023-05-10T02:09:00.410Z,92504.97
2023-05-10T02:11:27.137Z,92503.00
2023-05-10T02:13:53.660Z,92504.28
2023-05-10T02:16:20.303Z,92497.38
2023-05-10T02:18:46.910Z,92497.34
2023-05-10T02:21:13.459Z,92492.66
2023-05-10T02:23:39.968Z,92494.34
2023-05-10T02:26:06.831Z,92489.22
2023-05-10T02:28:33.339Z,92495.38
2023-05-10T02:30:59.794Z,92485.75
2023-05-10T02:33:26.703Z,92482.84
2023-05-10T02:35:53.159Z,92484.88
2023-05-10T02:38:20.671Z,92495.75
2023-05-10T02:40:47.294Z,92487.84
2023-05-10T02:43:14.550Z,92492.72
2023-05-10T02:45:41.394Z,92494.88
2023-05-10T02:48:07.948Z,92496.09
2023-05-10T02:50:34.515Z,92496.09
2023-05-10T02:53:02.808Z,92490.47
2023-05-10T02:55:33.422Z,92500.38
2023-05-10T02:58:01.068Z,92494.50
2023-05-10T03:00:27.542Z,92506.59
2023-05-10T03:02:54.358Z,92503.69
2023-05-10T03:05:21.131Z,92511.53
2023-05-10T03:07:47.647Z,92513.63
2023-05-10T03:10:14.278Z,92516.53
2023-05-10T03:13:02.826Z,92516.38
2023-05-10T03:15:59.749Z,92511.63
2023-05-10T03:18:42.930Z,92515.84
2023-05-10T03:21:11.568Z,92519.00
2023-05-10T03:23:49.196Z,92508.38
2023-05-10T03:26:26.950Z,92508.38
2023-05-10T03:28:53.923Z,92501.47
2023-05-10T03:31:20.486Z,92515.19
2023-05-10T03:33:48.519Z,92506.53
2023-05-10T03:36:15.128Z,92505.31
2023-05-10T03:38:41.767Z,92514.84
2023-05-10T03:41:08.232Z,92514.56
2023-05-10T03:43:34.750Z,92514.28
2023-05-10T03:46:04.720Z,92523.53
2023-05-10T03:48:31.424Z,92519.81
2023-05-10T03:50:57.902Z,92513.84
2023-05-10T03:53:24.361Z,92525.59
2023-05-10T03:55:50.896Z,92513.28
2023-05-10T03:58:17.462Z,92516.25
2023-05-10T04:00:46.779Z,92504.25
2023-05-10T04:03:13.397Z,92506.75
2023-05-10T04:05:39.935Z,92516.34
2023-05-10T04:08:06.553Z,92518.31
2023-05-10T04:10:33.167Z,92518.13
2023-05-10T04:12:59.649Z,92506.28
2023-05-10T04:15:26.173Z,92499.94
2023-05-10T04:17:52.748Z,92504.81
2023-05-10T04:20:19.405Z,92507.41
2023-05-10T04:22:46.162Z,92499.50
2023-05-10T04:25:12.667Z,92498.00
2023-05-10T04:27:39.138Z,92508.94
2023-05-10T04:30:06.275Z,92498.84
2023-05-10T04:32:32.803Z,92494.66
2023-05-10T04:34:59.307Z,92497.09
2023-05-10T04:37:25.790Z,92500.00
2023-05-10T04:39:52.339Z,92500.16
2023-05-10T04:42:18.811Z,92502.78
2023-05-10T04:44:45.278Z,92506.03
2023-05-10T04:47:12.812Z,92509.41
2023-05-10T04:49:39.374Z,92517.25
2023-05-10T04:52:05.825Z,92512.84
2023-05-10T04:54:32.304Z,92517.78
2023-05-10T04:56:58.794Z,92518.72
2023-05-10T04:59:25.280Z,92530.09
2023-05-10T05:01:51.817Z,92526.28
2023-05-10T05:04:18.536Z,92516.75
2023-05-10T05:06:45.113Z,92516.09
2023-05-10T05:09:11.584Z,92531.41
2023-05-10T05:11:38.118Z,92528.88
2023-05-10T05:14:04.581Z,92533.25
2023-05-10T05:16:31.900Z,92536.91
2023-05-10T05:18:58.357Z,92548.72
2023-05-10T05:21:26.052Z,92543.97
2023-05-10T05:23:52.506Z,92542.00
2023-05-10T05:26:18.976Z,92553.47
2023-05-10T05:28:45.449Z,92559.06
2023-05-10T05:31:12.017Z,92564.00
2023-05-10T05:33:38.665Z,92563.34
2023-05-10T05:36:05.925Z,92572.19
2023-05-10T05:38:32.433Z,92567.53
2023-05-10T05:40:58.962Z,92562.53
2023-05-10T05:43:25.684Z,92566.16
2023-05-10T05:45:53.596Z,92572.47
2023-05-10T05:48:20.136Z,92563.81
2023-05-10T05:50:46.955Z,92562.06
2023-05-10T05:53:13.484Z,92571.38
2023-05-10T05:55:39.944Z,92571.84
2023-05-10T05:58:06.428Z,92561.84
2023-05-10T06:00:32.937Z,92572.75
2023-05-10T06:02:59.537Z,92571.19
2023-05-10T06:05:26.120Z,92571.00
2023-05-10T06:07:52.611Z,92576.69
2023-05-10T06:10:19.107Z,92570.75
2023-05-10T06:12:46.070Z,92565.13
2023-05-10T06:15:12.683Z,92569.50
2023-05-10T06:17:39.834Z,92560.28
2023-05-10T06:20:07.450Z,92572.19
2023-05-10T06:22:33.941Z,92581.34
2023-05-10T06:25:00.434Z,92574.78
2023-05-10T06:27:26.993Z,92578.06
2023-05-10T06:30:02.125Z,92593.22
2023-05-10T06:32:36.127Z,92599.94
2023-05-10T06:35:02.884Z,92601.72
2023-05-10T06:37:29.364Z,92600.56
2023-05-10T06:39:56.009Z,92602.22
2023-05-10T06:42:22.480Z,92601.81
2023-05-10T06:44:49.063Z,92605.47
2023-05-10T06:47:15.532Z,92620.41
2023-05-10T06:49:41.999Z,92613.88
2023-05-10T06:52:08.660Z,92621.53
2023-05-10T06:54:35.143Z,92621.13
2023-05-10T06:57:03.600Z,92625.16
2023-05-10T06:59:30.582Z,92624.28
2023-05-10T07:01:57.110Z,92613.56
2023-05-10T07:04:23.614Z,92626.53
2023-05-10T07:06:50.688Z,92626.00
2023-05-10T07:09:17.179Z,92629.16
2023-05-10T07:11:43.639Z,92629.75
2023-05-10T07:14:10.092Z,92627.28
2023-05-10T07:16:37.322Z,92629.56
2023-05-10T07:19:03.894Z,92636.81
2023-05-10T07:21:30.465Z,92629.88
2023-05-10T07:23:57.062Z,92628.28
2023-05-10T07:26:23.540Z,92622.75
2023-05-10T07:28:49.996Z,92629.53
2023-05-10T07:31:16.606Z,92638.53
2023-05-10T07:33:43.105Z,92637.34
2023-05-10T07:36:09.612Z,92643.59
2023-05-10T07:38:36.494Z,92630.16
2023-05-10T07:41:04.060Z,92632.28
2023-05-10T07:43:30.619Z,92641.44
2023-05-10T07:45:58.539Z,92627.19
2023-05-10T07:48:25.102Z,92630.63
2023-05-10T07:50:51.569Z,92630.47
2023-05-10T07:53:19.496Z,92629.50
2023-05-10T07:55:52.704Z,92635.38
2023-05-10T07:58:19.279Z,92629.72
2023-05-10T08:00:45.850Z,92629.22
2023-05-10T08:03:12.732Z,92622.50
2023-05-10T08:05:39.367Z,92628.13
2023-05-10T08:08:06.008Z,92625.72
2023-05-10T08:10:32.589Z,92633.19
2023-05-10T08:12:59.526Z,92631.41
2023-05-10T08:15:26.468Z,92623.78
2023-05-10T08:17:53.255Z,92632.88
2023-05-10T08:20:20.023Z,92634.47
2023-05-10T08:22:47.010Z,92633.97
2023-05-10T08:25:13.533Z,92638.91
2023-05-10T08:27:40.008Z,92637.19
2023-05-10T08:30:07.343Z,92646.41
2023-05-10T08:32:33.838Z,92638.50
2023-05-10T08:35:00.304Z,92648.69
2023-05-10T08:37:27.085Z,92642.53
2023-05-10T08:39:53.615Z,92638.94
2023-05-10T08:42:21.451Z,92634.84
2023-05-10T08:44:49.716Z,92633.94
2023-05-10T08:47:16.477Z,92640.66
2023-05-10T08:49:42.948Z,92641.22
2023-05-10T08:52:09.493Z,92638.06
2023-05-10T08:54:36.447Z,92633.63
2023-05-10T08:57:03.026Z,92645.91
2023-05-10T08:59:29.655Z,92648.78
2023-05-10T09:01:58.257Z,92643.72
2023-05-10T09:04:24.868Z,92639.44
2023-05-10T09:06:51.712Z,92648.00
2023-05-10T09:09:18.922Z,92642.56
2023-05-10T09:11:45.788Z,92650.25
2023-05-10T09:14:13.379Z,92647.53
2023-05-10T09:16:40.757Z,92640.88
2023-05-10T09:19:08.340Z,92640.31
2023-05-10T09:21:37.649Z,92650.00
2023-05-10T09:24:07.719Z,92641.31
2023-05-10T09:26:34.474Z,92649.75
2023-05-10T09:29:01.119Z,92652.97
2023-05-10T09:31:49.154Z,92652.97
2023-05-10T09:34:32.989Z,92663.69
2023-05-10T09:37:05.361Z,92648.59
2023-05-10T09:39:36.022Z,92655.09
2023-05-10T09:42:06.764Z,92653.16
2023-05-10T09:44:33.831Z,92649.94
2023-05-10T09:47:01.375Z,92669.53
2023-05-10T09:49:27.908Z,92644.28
2023-05-10T09:52:07.796Z,92652.44
2023-05-10T09:54:34.579Z,92645.75
2023-05-10T09:57:01.656Z,92651.44
2023-05-10T09:59:28.676Z,92642.03
2023-05-10T10:02:01.674Z,92649.22
2023-05-10T10:04:28.473Z,92652.44
2023-05-10T10:07:04.785Z,92660.09
2023-05-10T10:09:31.674Z,92661.81
2023-05-10T10:11:58.129Z,92655.16
2023-05-10T10:14:27.453Z,92653.44
2023-05-10T10:17:06.557Z,92656.66
2023-05-10T10:19:37.238Z,92646.00
2023-05-10T10:22:04.068Z,92657.38
2023-05-10T10:24:30.739Z,92655.09
2023-05-10T10:27:00.415Z,92653.59
2023-05-10T10:29:38.949Z,92657.81
2023-05-10T10:32:27.478Z,92649.41
2023-05-10T10:34:55.153Z,92659.16
2023-05-10T10:37:21.642Z,92654.47
2023-05-10T10:39:49.904Z,92655.84
2023-05-10T10:42:16.396Z,92661.25
2023-05-10T10:44:44.827Z,92657.63
2023-05-10T10:47:26.132Z,92658.94
2023-05-10T10:50:17.065Z,92663.13
2023-05-10T10:52:46.808Z,92657.44
2023-05-10T10:55:23.194Z,92664.59
2023-05-10T10:57:52.607Z,92663.53
2023-05-10T11:00:24.063Z,92668.00
2023-05-10T11:02:57.502Z,92658.53
2023-05-10T11:05:24.717Z,92658.53
2023-05-10T11:07:55.793Z,92661.44
2023-05-10T11:10:26.356Z,92660.16
2023-05-10T11:13:06.543Z,92654.97
2023-05-10T11:15:36.777Z,92656.00
2023-05-10T11:18:22.079Z,92660.25
2023-05-10T11:21:11.356Z,92662.41
2023-05-10T11:23:40.892Z,92654.06
2023-05-10T11:26:10.547Z,92646.28
2023-05-10T11:28:45.412Z,92651.59
2023-05-10T11:31:14.340Z,92655.44
2023-05-10T11:33:54.116Z,92655.88
2023-05-10T11:36:40.842Z,92653.16
2023-05-10T11:39:07.315Z,92654.09
2023-05-10T11:41:33.839Z,92658.38
2023-05-10T11:44:00.419Z,92662.59
2023-05-10T11:46:28.507Z,92651.06
2023-05-10T11:48:59.215Z,92655.19
2023-05-10T11:51:25.865Z,92660.69
2023-05-10T11:53:55.637Z,92661.16
2023-05-10T11:56:22.689Z,92660.53
2023-05-10T11:58:56.776Z,92655.94
2023-05-10T12:01:23.872Z,92651.44
2023-05-10T12:03:51.143Z,92648.69
2023-05-10T12:06:19.055Z,92648.69
2023-05-10T12:08:47.409Z,92656.44
2023-05-10T12:11:17.013Z,92658.09
2023-05-10T12:13:44.334Z,92652.03
2023-05-10T12:16:15.728Z,92653.78
2023-05-10T12:18:43.445Z,92654.34
2023-05-10T12:21:13.124Z,92658.34
2023-05-10T12:23:40.205Z,92654.59
2023-05-10T12:26:06.832Z,92642.50
2023-05-10T12:28:33.719Z,92637.47
2023-05-10T12:31:00.487Z,92644.03
2023-05-10T12:33:26.987Z,92647.50
2023-05-10T12:35:54.605Z,92644.00
2023-05-10T12:38:34.929Z,92641.28
2023-05-10T12:41:03.112Z,92640.03
2023-05-10T12:43:29.784Z,92658.03
2023-05-10T12:45:56.679Z,92641.47
2023-05-10T12:48:23.315Z,92635.63
2023-05-10T12:50:49.828Z,92641.16
2023-05-10T12:53:19.555Z,92641.75
2023-05-10T12:55:46.052Z,92638.69
2023-05-10T12:58:17.966Z,92630.13
2023-05-10T13:00:54.318Z,92627.25
2023-05-10T13:03:21.099Z,92627.53
2023-05-10T13:05:47.555Z,92629.38
2023-05-10T13:08:14.135Z,92622.22
2023-05-10T13:10:41.222Z,92625.34
2023-05-10T13:13:08.515Z,92612.59
2023-05-10T13:15:34.996Z,92631.31
2023-05-10T13:18:01.568Z,92629.66
2023-05-10T13:20:28.128Z,92628.66
2023-05-10T13:22:54.647Z,92632.16
2023-05-10T13:25:21.288Z,92639.88
2023-05-10T13:27:47.748Z,92643.94
2023-05-10T13:30:14.365Z,92639.41
2023-05-10T13:32:41.120Z,92640.38
2023-05-10T13:35:08.579Z,92642.38
2023-05-10T13:37:38.070Z,92648.28
2023-05-10T13:40:05.437Z,92653.66
2023-05-10T13:42:34.311Z,92652.59
2023-05-10T13:45:02.765Z,92647.59
2023-05-10T13:47:29.351Z,92648.47
2023-05-10T13:49:56.160Z,92643.75
2023-05-10T13:52:22.699Z,92642.06
2023-05-10T13:54:49.174Z,92639.97
2023-05-10T13:57:17.629Z,92636.63
2023-05-10T13:59:44.103Z,92621.63
2023-05-10T14:02:11.602Z,92627.91
2023-05-10T14:04:38.672Z,92621.75
2023-05-10T14:07:05.168Z,92623.59
2023-05-10T14:09:31.884Z,92628.91
2023-05-10T14:11:58.662Z,92620.16
2023-05-10T14:14:25.820Z,92616.47
2023-05-10T14:16:52.436Z,92613.34
2023-05-10T14:19:18.960Z,92618.53
2023-05-10T14:21:45.449Z,92628.06
2023-05-10T14:24:11.960Z,92620.72
2023-05-10T14:26:38.516Z,92623.41
2023-05-10T14:29:05.003Z,92616.28
2023-05-10T14:31:31.745Z,92616.69
2023-05-10T14:33:58.709Z,92624.34
2023-05-10T14:36:25.256Z,92624.50
2023-05-10T14:38:51.949Z,92620.16
2023-05-10T14:41:18.778Z,92631.34
2023-05-10T14:43:45.372Z,92631.16
2023-05-10T14:46:12.067Z,92628.56
2023-05-10T14:48:38.672Z,92624.78
2023-05-10T14:51:05.187Z,92617.03
2023-05-10T14:53:31.703Z,92616.03
2023-05-10T14:55:58.441Z,92626.94
2023-05-10T14:58:24.899Z,92622.69
2023-05-10T15:00:51.967Z,92610.56
2023-05-10T15:03:19.074Z,92614.28
2023-05-10T15:05:45.971Z,92607.19
2023-05-10T15:08:13.504Z,92603.19
2023-05-10T15:10:40.595Z,92603.47
2023-05-10T15:13:07.048Z,92604.94
2023-05-10T15:15:33.555Z,92608.72
2023-05-10T15:18:00.296Z,92603.59
2023-05-10T15:20:26.865Z,92602.22
2023-05-10T15:22:53.360Z,92602.94
2023-05-10T15:25:20.417Z,92609.16
2023-05-10T15:27:46.929Z,92607.66
2023-05-10T15:30:13.612Z,92619.06
2023-05-10T15:32:41.071Z,92623.94
2023-05-10T15:35:09.073Z,92615.28
2023-05-10T15:37:35.604Z,92635.16
2023-05-10T15:40:04.327Z,92630.31
2023-05-10T15:42:34.351Z,92633.03
2023-05-10T15:45:00.865Z,92610.81
2023-05-10T15:47:28.447Z,92615.88
2023-05-10T15:49:55.041Z,92637.31
2023-05-10T15:52:21.894Z,92644.22
2023-05-10T15:54:48.369Z,92636.88
2023-05-10T15:57:14.840Z,92651.97
2023-05-10T15:59:41.574Z,92645.16
2023-05-10T16:02:08.733Z,92649.19
2023-05-10T16:04:35.320Z,92645.47
2023-05-10T16:07:01.859Z,92661.75
2023-05-10T16:09:28.360Z,92649.91
2023-05-10T16:11:54.958Z,92652.16
2023-05-10T16:14:22.931Z,92650.06
2023-05-10T16:16:49.626Z,92675.50
2023-05-10T16:19:16.294Z,92666.22
2023-05-10T16:21:42.796Z,92657.41
2023-05-10T16:24:09.289Z,92650.91
2023-05-10T16:26:40.923Z,92661.59
2023-05-10T16:29:10.773Z,92672.59
2023-05-10T16:31:37.381Z,92662.03
2023-05-10T16:34:03.906Z,92662.53
2023-05-10T16:36:31.405Z,92652.72
2023-05-10T16:38:58.311Z,92653.56
2023-05-10T16:41:24.764Z,92661.38
2023-05-10T16:43:51.348Z,92653.97
2023-05-10T16:46:17.908Z,92654.63
2023-05-10T16:48:44.411Z,92654.66
2023-05-10T16:51:10.895Z,92654.06
2023-05-10T16:53:37.784Z,92646.44
2023-05-10T16:56:04.442Z,92654.50
2023-05-10T16:58:30.927Z,92651.13
2023-05-10T17:00:57.417Z,92657.72
2023-05-10T17:03:24.037Z,92657.94
2023-05-10T17:05:50.715Z,92666.09
2023-05-10T17:08:17.221Z,92653.72
2023-05-10T17:10:43.713Z,92666.34
2023-05-10T17:13:10.655Z,92663.72
2023-05-10T17:15:38.200Z,92661.06
2023-05-10T17:18:05.162Z,92662.81
2023-05-10T17:20:31.727Z,92655.66
2023-05-10T17:22:58.210Z,92664.56
2023-05-10T17:25:24.677Z,92652.69
2023-05-10T17:27:51.142Z,92672.25
2023-05-10T17:30:22.452Z,92662.13
2023-05-10T17:32:49.026Z,92655.91
2023-05-10T17:35:15.925Z,92653.91
2023-05-10T17:37:44.022Z,92661.84
2023-05-10T17:40:11.309Z,92658.38
2023-05-10T17:42:37.814Z,92653.69
2023-05-10T17:45:04.599Z,92655.66
2023-05-10T17:47:31.135Z,92650.44
2023-05-10T17:49:57.696Z,92649.94
2023-05-10T17:52:24.156Z,92662.28
2023-05-10T17:54:51.118Z,92662.50
2023-05-10T17:57:17.643Z,92661.97
2023-05-10T17:59:44.252Z,92662.69
2023-05-10T18:02:10.711Z,92663.34
2023-05-10T18:04:39.881Z,92666.56
2023-05-10T18:07:06.691Z,92663.59
2023-05-10T18:09:34.057Z,92665.06
2023-05-10T18:12:02.296Z,92667.94
2023-05-10T18:14:39.733Z,92661.75
2023-05-10T18:17:07.041Z,92668.16
2023-05-10T18:19:33.991Z,92663.91
2023-05-10T18:22:00.514Z,92675.00
2023-05-10T18:24:38.177Z,92680.19
2023-05-10T18:27:05.898Z,92682.47
2023-05-10T18:29:32.675Z,92681.28
2023-05-10T18:31:59.208Z,92682.72
2023-05-10T18:34:25.679Z,92686.63
2023-05-10T18:36:52.450Z,92681.28
2023-05-10T18:39:19.025Z,92676.19
2023-05-10T18:41:45.728Z,92690.94
2023-05-10T18:44:12.291Z,92680.66
2023-05-10T18:46:39.063Z,92679.72
2023-05-10T18:49:06.480Z,92684.25
2023-05-10T18:51:33.075Z,92676.53
2023-05-10T18:54:00.495Z,92682.91
2023-05-10T18:56:27.283Z,92676.94
2023-05-10T18:58:53.899Z,92678.28
2023-05-10T19:01:20.462Z,92680.38
2023-05-10T19:03:46.937Z,92681.69
2023-05-10T19:06:13.440Z,92689.66
2023-05-10T19:08:39.888Z,92674.94
2023-05-10T19:11:06.343Z,92676.53
2023-05-10T19:13:32.847Z,92681.75
2023-05-10T19:16:06.544Z,92681.00
2023-05-10T19:18:33.720Z,92697.94
2023-05-10T19:21:03.711Z,92690.66
2023-05-10T19:23:34.288Z,92696.25
2023-05-10T19:26:00.937Z,92697.38
2023-05-10T19:28:27.466Z,92697.72
2023-05-10T19:30:54.052Z,92703.06
2023-05-10T19:33:20.866Z,92709.56
2023-05-10T19:35:48.001Z,92699.75
2023-05-10T19:38:14.477Z,92712.28
2023-05-10T19:40:40.967Z,92717.59
2023-05-10T19:43:07.922Z,92713.41
2023-05-10T19:45:35.035Z,92718.63
2023-05-10T19:48:02.937Z,92717.13
2023-05-10T19:50:29.479Z,92724.09
2023-05-10T19:52:58.050Z,92713.56
2023-05-10T19:55:30.478Z,92725.72
2023-05-10T19:57:57.268Z,92718.06
2023-05-10T20:00:24.864Z,92727.47
2023-05-10T20:02:51.575Z,92724.56
2023-05-10T20:05:18.243Z,92726.38
2023-05-10T20:07:44.880Z,92734.03
2023-05-10T20:10:11.586Z,92726.94
2023-05-10T20:12:38.061Z,92726.25
2023-05-10T20:15:06.392Z,92726.09
2023-05-10T20:17:33.011Z,92726.84
2023-05-10T20:19:59.636Z,92721.53
2023-05-10T20:22:26.183Z,92727.03
2023-05-10T20:24:55.154Z,92723.84
2023-05-10T20:27:22.434Z,92718.25
2023-05-10T20:29:48.933Z,92718.81
2023-05-10T20:32:15.553Z,92719.38
2023-05-10T20:34:42.008Z,92722.19
2023-05-10T20:37:08.492Z,92716.94
2023-05-10T20:39:34.943Z,92711.81
2023-05-10T20:42:01.464Z,92712.28
2023-05-10T20:44:28.027Z,92714.06
2023-05-10T20:46:54.483Z,92714.50
2023-05-10T20:49:21.784Z,92712.75
2023-05-10T20:51:48.295Z,92713.97
2023-05-10T20:54:14.760Z,92712.38
2023-05-10T20:56:41.218Z,92712.09
2023-05-10T20:59:07.822Z,92715.81
2023-05-10T21:01:34.295Z,92711.63
2023-05-10T21:04:00.858Z,92713.31
2023-05-10T21:06:27.339Z,92714.72
2023-05-10T21:08:53.790Z,92704.38
2023-05-10T21:11:20.730Z,92712.19
2023-05-10T21:13:47.245Z,92712.38
2023-05-10T21:16:13.817Z,92710.50
2023-05-10T21:18:40.377Z,92708.53
2023-05-10T21:21:06.874Z,92712.94
2023-05-10T21:23:34.558Z,92710.22
2023-05-10T21:26:03.053Z,92707.53
2023-05-10T21:28:29.538Z,92701.38
2023-05-10T21:30:56.728Z,92704.34
2023-05-10T21:33:23.764Z,92702.59
2023-05-10T21:35:50.501Z,92706.78
2023-05-10T21:38:17.106Z,92696.06
2023-05-10T21:40:43.639Z,92694.38
2023-05-10T21:43:11.199Z,92698.31
2023-05-10T21:45:37.936Z,92702.22
2023-05-10T21:48:04.592Z,92699.22
2023-05-10T21:50:31.132Z,92703.88
2023-05-10T21:52:57.762Z,92701.38
2023-05-10T21:55:24.282Z,92700.91
2023-05-10T21:57:50.762Z,92701.66
2023-05-10T22:00:19.204Z,92699.78
2023-05-10T22:02:46.762Z,92702.56
2023-05-10T22:05:13.436Z,92704.53
2023-05-10T22:07:39.928Z,92696.25
2023-05-10T22:10:10.305Z,92698.50
2023-05-10T22:12:36.868Z,92699.22
2023-05-10T22:17:32.944Z,92706.50
2023-05-10T22:19:59.429Z,92700.16
2023-05-10T22:22:25.893Z,92692.78
2023-05-10T22:24:52.520Z,92689.34
2023-05-10T22:27:19.172Z,92693.25
2023-05-10T22:29:46.493Z,92702.59
2023-05-10T22:32:12.943Z,92693.53
2023-05-10T22:34:39.444Z,92699.50
2023-05-10T22:37:05.940Z,92696.78
2023-05-10T22:39:32.936Z,92704.53
2023-05-10T22:41:59.418Z,92698.66
2023-05-10T22:44:25.878Z,92698.91
2023-05-10T22:46:52.417Z,92696.47
2023-05-10T22:49:18.989Z,92692.97
2023-05-10T22:51:45.472Z,92706.56
2023-05-10T22:54:11.939Z,92697.22
2023-05-10T22:56:38.554Z,92705.19
2023-05-10T22:59:05.370Z,92700.72
2023-05-10T23:01:31.920Z,92701.44
2023-05-10T23:03:58.465Z,92697.91
2023-05-10T23:06:25.100Z,92700.88
2023-05-10T23:08:51.977Z,92693.03
2023-05-10T23:11:18.444Z,92693.50
2023-05-10T23:13:44.907Z,92696.22
2023-05-10T23:16:11.406Z,92704.25
2023-05-10T23:18:37.961Z,92702.78
2023-05-10T23:21:04.513Z,92694.28
2023-05-10T23:23:32.625Z,92690.06
2023-05-10T23:25:59.457Z,92693.53
2023-05-10T23:28:26.012Z,92689.59
2023-05-10T23:30:56.608Z,92685.41
2023-05-10T23:33:23.434Z,92692.31
2023-05-10T23:35:49.934Z,92688.47
2023-05-10T23:38:16.620Z,92684.69
2023-05-10T23:40:43.112Z,92687.66
2023-05-10T23:43:09.655Z,92686.25
2023-05-10T23:45:36.291Z,92687.94
2023-05-10T23:48:02.858Z,92683.84
2023-05-10T23:50:29.380Z,92678.91
2023-05-10T23:52:55.843Z,92674.69
2023-05-10T23:55:22.536Z,92673.69
2023-05-10T23:57:49.012Z,92664.34
